Time;durP1;ratioP1;P1;durP2;ratioP2;P2;SDS_P1;SDS_P2;PMS_P1;PMS_P2;Temp;Humidity;BMP_temperature;BMP_pressure;BME280_temperature;BME280_humidity;BME280_pressure;Samples;Min_cycle;Max_cycle;Signal;HPM_P1;HPM_P2
2023/09/23 00:01:14;;;;;;;11.95;5.47;;;;;;;22.05;55.04;95040.03;4932306;29;20141;-79
2023/09/23 00:03:41;;;;;;;8.02;4.72;;;;;;;22.08;55.24;95047.41;4930927;29;20139;-79
2023/09/23 00:06:08;;;;;;;11.65;5.07;;;;;;;22.03;55.60;95045.41;4932623;29;20019;-79
2023/09/23 00:08:34;;;;;;;11.57;5.32;;;;;;;21.97;54.87;95040.56;4931349;29;20455;-79
2023/09/23 00:10:59;;;;;;;10.30;5.50;;;;;;;21.94;54.75;95046.41;4931271;29;20102;-79
2023/09/23 00:13:25;;;;;;;11.73;4.85;;;;;;;21.87;55.12;95044.88;4931730;29;20024;-79
2023/09/23 00:15:51;;;;;;;20.60;5.20;;;;;;;21.76;55.39;95036.50;4930882;29;20024;-80
2023/09/23 00:18:17;;;;;;;17.10;6.20;;;;;;;21.86;55.77;95054.56;4932097;29;20031;-77
2023/09/23 00:20:46;;;;;;;9.32;4.90;;;;;;;21.79;55.58;95043.84;4930484;29;20031;-79
2023/09/23 00:23:12;;;;;;;9.02;4.90;;;;;;;21.75;56.00;95046.16;4931940;29;20031;-79
2023/09/23 00:25:38;;;;;;;9.18;4.93;;;;;;;21.72;56.08;95038.78;4931032;29;20036;-78
2023/09/23 00:28:10;;;;;;;14.02;5.25;;;;;;;21.64;56.59;95035.72;4930904;29;20526;-78
2023/09/23 00:30:36;;;;;;;10.37;4.80;;;;;;;21.67;56.14;95034.69;4913961;29;20055;-79
2023/09/23 00:33:02;;;;;;;11.85;6.45;;;;;;;21.62;56.42;95046.66;4930561;29;20107;-77
2023/09/23 00:35:28;;;;;;;9.38;5.07;;;;;;;21.61;56.05;95047.16;4931418;29;20035;-78
2023/09/23 00:37:53;;;;;;;11.65;6.57;;;;;;;21.59;55.90;95039.28;4930368;29;20032;-79
2023/09/23 00:40:32;;;;;;;14.45;7.07;;;;;;;21.54;55.82;95040.03;4914212;29;20106;-78
2023/09/23 00:43:05;;;;;;;11.77;5.53;;;;;;;21.53;56.09;95049.69;4930640;29;20039;-78
2023/09/23 00:45:30;;;;;;;13.63;5.32;;;;;;;21.39;56.22;95039.50;4929786;29;20036;-78
2023/09/23 00:47:56;;;;;;;12.98;5.65;;;;;;;21.38;56.41;95035.94;4930915;29;20091;-79
2023/09/23 00:50:22;;;;;;;7.72;4.80;;;;;;;21.36;56.44;95043.31;4928983;29;20599;-78
2023/09/23 00:52:51;;;;;;;13.88;5.03;;;;;;;21.20;56.39;95030.78;4931028;29;20016;-79
2023/09/23 00:55:18;;;;;;;11.23;5.13;;;;;;;21.11;56.71;95037.38;4930132;29;20482;-79
2023/09/23 00:57:46;;;;;;;14.15;5.25;;;;;;;21.13;57.12;95036.88;4931073;29;20024;-77
2023/09/23 01:00:23;;;;;;;13.00;5.68;;;;;;;21.14;56.78;95032.81;4929040;29;20024;-78
2023/09/23 01:02:49;;;;;;;16.38;5.47;;;;;;;21.19;57.15;95032.06;4929341;29;20024;-79
2023/09/23 01:05:18;;;;;;;11.15;4.93;;;;;;;21.15;57.34;95034.34;4929790;29;20074;-79
2023/09/23 01:07:45;;;;;;;11.90;5.78;;;;;;;21.15;57.54;95034.34;4930138;29;20020;-77
2023/09/23 01:10:12;;;;;;;13.38;5.15;;;;;;;21.10;57.04;95024.66;4931434;29;20028;-79
2023/09/23 01:12:37;;;;;;;10.93;4.88;;;;;;;21.04;56.69;95023.13;4928686;29;20123;-79
2023/09/23 01:15:03;;;;;;;13.07;5.35;;;;;;;21.12;56.93;95035.34;4930624;29;20122;-78
2023/09/23 01:17:29;;;;;;;13.30;5.60;;;;;;;21.15;57.10;95035.09;4930445;29;20082;-79
2023/09/23 01:19:54;;;;;;;13.13;6.05;;;;;;;21.12;57.20;95035.34;4930338;29;20486;-79
2023/09/23 01:22:23;;;;;;;11.38;5.00;;;;;;;21.11;57.09;95029.00;4930294;29;20027;-79
2023/09/23 01:24:49;;;;;;;11.32;5.05;;;;;;;21.12;57.26;95030.53;4912804;29;20499;-78
2023/09/23 01:27:18;;;;;;;13.40;4.82;;;;;;;21.09;57.32;95025.94;4930647;29;20043;-78
2023/09/23 01:29:44;;;;;;;11.75;5.47;;;;;;;21.06;57.66;95032.53;4929571;29;20028;-79
2023/09/23 01:32:15;;;;;;;10.57;5.70;;;;;;;21.04;57.76;95035.06;4930461;29;20034;-77
2023/09/23 01:34:41;;;;;;;9.52;5.38;;;;;;;21.04;57.57;95034.28;4929643;29;20035;-78
2023/09/23 01:37:06;;;;;;;14.65;5.68;;;;;;;21.01;57.97;95027.69;4930212;29;20028;-78
2023/09/23 01:39:32;;;;;;;9.90;5.68;;;;;;;21.00;57.58;95017.03;4930013;29;20031;-78
2023/09/23 01:41:57;;;;;;;11.55;5.43;;;;;;;20.89;58.09;95017.75;4929371;29;20036;-77
2023/09/23 01:44:23;;;;;;;11.52;5.35;;;;;;;20.95;58.06;95026.91;4912555;29;20045;-78
2023/09/23 01:46:48;;;;;;;13.45;5.55;;;;;;;20.92;57.89;95034.25;4928025;29;20039;-79
2023/09/23 01:49:16;;;;;;;9.35;4.78;;;;;;;20.90;57.87;95028.41;4930139;29;20108;-78
2023/09/23 01:51:41;;;;;;;13.75;5.40;;;;;;;20.91;57.87;95032.75;4911798;29;20036;-78
2023/09/23 01:54:07;;;;;;;11.55;5.65;;;;;;;20.82;58.17;95023.84;4929829;29;20026;-80
2023/09/23 01:56:34;;;;;;;13.20;6.38;;;;;;;20.86;58.13;95035.50;4928145;29;20038;-77
2023/09/23 01:58:59;;;;;;;11.60;5.70;;;;;;;20.80;57.98;95035.50;4929522;29;20056;-79
2023/09/23 02:01:26;;;;;;;12.00;5.45;;;;;;;20.82;58.22;95029.41;4928401;29;20499;-78
2023/09/23 02:03:51;;;;;;;16.70;5.72;;;;;;;20.77;58.26;95027.38;4911843;29;20107;-78
2023/09/23 02:06:17;;;;;;;15.13;5.32;;;;;;;20.73;58.67;95033.19;4929831;29;20114;-78
2023/09/23 02:08:42;;;;;;;9.25;5.00;;;;;;;20.67;58.64;95038.75;4929075;29;20110;-78
2023/09/23 02:11:08;;;;;;;11.85;5.25;;;;;;;20.61;58.76;95034.41;4929992;29;20030;-79
2023/09/23 02:13:36;;;;;;;12.30;5.53;;;;;;;20.64;59.14;95041.75;4928994;29;20512;-78
2023/09/23 02:16:04;;;;;;;12.95;5.30;;;;;;;20.62;59.31;95047.84;4929270;29;20023;-79
2023/09/23 02:18:30;;;;;;;10.23;5.60;;;;;;;20.60;59.10;95049.63;4929217;29;20110;-80
2023/09/23 02:20:56;;;;;;;9.85;5.35;;;;;;;20.56;59.53;95049.09;4929213;29;20143;-79
2023/09/23 02:23:22;;;;;;;11.65;5.43;;;;;;;20.48;59.77;95050.84;4928113;29;20024;-77
2023/09/23 02:25:49;;;;;;;12.20;5.57;;;;;;;20.51;59.85;95052.63;4928923;29;20031;-78
2023/09/23 02:28:14;;;;;;;12.30;5.30;;;;;;;20.42;59.73;95061.94;4912343;29;20123;-78
2023/09/23 02:30:41;;;;;;;12.95;6.30;;;;;;;20.33;60.19;95048.19;4928505;29;20030;-80
2023/09/23 02:33:08;;;;;;;10.20;6.10;;;;;;;20.38;59.95;95064.19;4929107;29;20028;-78
2023/09/23 02:35:34;;;;;;;14.23;5.88;;;;;;;20.30;60.15;95046.38;4927536;29;20079;-78
2023/09/23 02:37:59;;;;;;;20.88;6.22;;;;;;;20.33;60.51;95064.94;4928993;29;20040;-77
2023/09/23 02:40:27;;;;;;;12.10;5.32;;;;;;;20.27;60.20;95064.88;4928767;29;20036;-78
2023/09/23 02:42:53;;;;;;;14.38;6.30;;;;;;;20.29;60.35;95072.75;4928655;29;20043;-77
2023/09/23 02:45:20;;;;;;;9.38;6.05;;;;;;;20.27;60.44;95076.06;4929235;29;20095;-78
2023/09/23 02:47:46;;;;;;;12.10;5.40;;;;;;;20.22;60.43;95068.41;4928164;29;20034;-79
2023/09/23 02:50:13;;;;;;;14.40;5.80;;;;;;;20.17;60.18;95072.69;4911643;29;20035;-78
2023/09/23 02:52:39;;;;;;;14.10;6.75;;;;;;;20.19;60.52;95077.03;4928255;29;20099;-78
2023/09/23 02:55:12;;;;;;;13.38;6.15;;;;;;;20.17;60.37;95078.25;4911562;29;20042;-78
2023/09/23 02:57:45;;;;;;;14.95;5.85;;;;;;;20.12;60.68;95070.63;4928886;29;20028;-79
2023/09/23 03:00:17;;;;;;;;;;;;;;;20.09;60.61;95077.19;4928229;29;20087;-79
2023/09/23 03:02:51;;;;;;;11.38;5.60;;;;;;;20.05;60.91;95079.44;4912959;29;19958;-77
2023/09/23 03:05:16;;;;;;;16.95;6.43;;;;;;;20.02;60.62;95083.25;4927903;29;20047;-79
2023/09/23 03:07:43;;;;;;;12.85;6.32;;;;;;;20.01;60.61;95070.53;4928923;29;20414;-79
2023/09/23 03:10:12;;;;;;;10.20;5.80;;;;;;;19.99;60.91;95077.88;4928223;29;20490;-78
2023/09/23 03:12:43;;;;;;;11.90;5.45;;;;;;;20.01;60.68;95081.69;4928400;29;20028;-79
2023/09/23 03:15:14;;;;;;;16.85;6.20;;;;;;;19.94;60.65;95073.78;4928910;29;20032;-79
2023/09/23 03:17:50;;;;;;;15.95;7.25;;;;;;;19.95;60.66;95085.69;4928262;29;20053;-78
2023/09/23 03:20:21;;;;;;;11.85;5.60;;;;;;;19.92;60.74;95081.13;4928683;29;20031;-78
2023/09/23 03:22:47;;;;;;;14.70;5.50;;;;;;;19.83;61.33;95085.59;4928064;29;20027;-79
2023/09/23 03:25:13;;;;;;;13.38;5.75;;;;;;;19.83;61.05;95091.19;4928299;29;20487;-79
2023/09/23 03:27:39;;;;;;;8.40;6.00;;;;;;;19.80;61.57;95086.59;4911019;29;20044;-79
2023/09/23 03:30:11;;;;;;;14.65;5.93;;;;;;;19.79;61.09;95076.72;4928146;29;20032;-80
2023/09/23 03:32:37;;;;;;;13.63;5.88;;;;;;;19.81;61.13;95084.59;4928950;29;20379;-78
2023/09/23 03:35:03;;;;;;;13.77;6.05;;;;;;;19.78;61.35;95074.41;4927750;29;20027;-79
2023/09/23 03:37:29;;;;;;;14.75;6.05;;;;;;;19.76;61.68;95086.06;4927309;29;20036;-78
2023/09/23 03:39:55;;;;;;;11.43;5.63;;;;;;;19.71;61.44;95083.22;4928286;29;20139;-78
2023/09/23 03:42:21;;;;;;;10.32;6.00;;;;;;;19.71;61.50;95077.63;4926963;29;20526;-78
2023/09/23 03:44:47;;;;;;;12.00;5.68;;;;;;;19.68;61.66;95087.78;4928326;29;20078;-78
2023/09/23 03:47:12;;;;;;;12.10;6.07;;;;;;;19.64;61.65;95076.06;4928125;29;20086;-79
2023/09/23 03:49:37;;;;;;;14.68;5.80;;;;;;;19.65;61.59;95082.41;4926945;29;20392;-79
2023/09/23 03:52:05;;;;;;;16.45;5.78;;;;;;;19.58;61.90;95084.38;4927766;29;20103;-77
2023/09/23 03:54:33;;;;;;;14.88;6.15;;;;;;;19.57;61.46;95088.41;4928907;29;20027;-78
2023/09/23 03:56:58;;;;;;;10.93;5.88;;;;;;;19.57;61.35;95090.44;4927754;29;20445;-79
2023/09/23 03:59:24;;;;;;;10.98;5.72;;;;;;;19.51;61.30;95095.19;4927381;29;20020;-78
2023/09/23 04:01:50;;;;;;;13.73;5.68;;;;;;;19.45;61.56;95095.13;4928154;29;20482;-79
2023/09/23 04:04:17;;;;;;;15.30;6.07;;;;;;;19.45;61.82;95103.50;4928223;29;20027;-78
2023/09/23 04:06:43;;;;;;;16.33;6.45;;;;;;;19.40;61.69;95095.06;4928823;29;20040;-78
2023/09/23 04:09:12;;;;;;;11.65;6.32;;;;;;;19.40;61.87;95100.66;4931200;29;20518;-79
2023/09/23 04:11:37;;;;;;;13.15;6.20;;;;;;;19.39;62.15;95107.47;4931808;29;20495;-78
2023/09/23 04:14:02;;;;;;;14.00;6.50;;;;;;;19.34;62.17;95115.28;4931048;29;20054;-78
2023/09/23 04:16:28;;;;;;;13.32;6.30;;;;;;;19.33;62.04;95115.78;4914733;29;20023;-78
2023/09/23 04:18:53;;;;;;;11.82;6.15;;;;;;;19.29;61.92;95115.97;4931154;29;20028;-78
2023/09/23 04:21:20;;;;;;;10.35;6.35;;;;;;;19.20;62.09;95112.56;4931655;29;20078;-81
2023/09/23 04:23:48;;;;;;;17.15;6.53;;;;;;;19.22;62.21;95119.19;4931036;29;20027;-77
2023/09/23 04:26:14;;;;;;;12.27;6.47;;;;;;;19.20;62.56;95121.69;4929799;29;20039;-78
2023/09/23 04:28:39;;;;;;;13.13;6.68;;;;;;;19.25;62.49;95128.59;4930397;29;20027;-79
2023/09/23 04:31:06;;;;;;;15.75;6.28;;;;;;;19.21;62.74;95125.25;4930656;29;20059;-79
2023/09/23 04:33:32;;;;;;;13.45;6.13;;;;;;;19.19;62.58;95122.97;4931616;29;20066;-79
2023/09/23 04:35:58;;;;;;;11.80;6.32;;;;;;;19.23;62.83;95129.09;4913240;29;20059;-78
2023/09/23 04:38:26;;;;;;;16.70;7.43;;;;;;;19.21;62.88;95139.97;4914403;29;20475;-79
2023/09/23 04:40:52;;;;;;;15.43;7.70;;;;;;;19.22;62.81;95140.72;4930789;29;20066;-77
2023/09/23 04:43:17;;;;;;;13.88;6.25;;;;;;;19.23;62.97;95147.84;4913835;29;20039;-78
2023/09/23 04:45:44;;;;;;;18.55;7.93;;;;;;;19.25;63.15;95145.31;4930694;29;20024;-79
2023/09/23 04:48:09;;;;;;;13.25;6.88;;;;;;;19.21;62.75;95153.91;4930432;29;20078;-77
2023/09/23 04:50:38;;;;;;;17.88;7.10;;;;;;;19.23;62.65;95156.97;4931020;29;20476;-79
2023/09/23 04:53:04;;;;;;;18.42;7.95;;;;;;;19.24;62.85;95144.56;4930042;29;20059;-79
2023/09/23 04:55:30;;;;;;;21.25;7.60;;;;;;;19.27;62.55;95142.81;4930910;29;20074;-79
2023/09/23 04:57:55;;;;;;;13.02;6.78;;;;;;;19.30;62.62;95148.16;4930511;29;20031;-78
2023/09/23 05:00:21;;;;;;;16.02;6.65;;;;;;;19.24;62.36;95135.44;4930819;29;20031;-79
2023/09/23 05:02:51;;;;;;;22.38;7.47;;;;;;;19.33;62.60;95152.78;4930328;29;20119;-79
2023/09/23 05:05:17;;;;;;;17.05;7.15;;;;;;;19.35;62.83;95152.28;4930176;29;20415;-78
2023/09/23 05:07:42;;;;;;;18.17;7.07;;;;;;;19.36;62.20;95154.56;4930777;29;20062;-78
2023/09/23 05:10:09;;;;;;;17.90;6.60;;;;;;;19.40;62.52;95156.38;4930053;29;20020;-78
2023/09/23 05:12:34;;;;;;;13.98;7.82;;;;;;;19.41;62.43;95149.56;4930670;29;20095;-78
2023/09/23 05:15:00;;;;;;;22.15;7.30;;;;;;;19.43;62.21;95155.41;4929812;29;20063;-79
2023/09/23 05:17:28;;;;;;;11.88;6.40;;;;;;;19.42;61.83;95151.09;4912461;29;20024;-77
2023/09/23 05:19:53;;;;;;;14.98;6.57;;;;;;;19.42;61.93;95151.84;4912730;29;20537;-78
2023/09/23 05:22:19;;;;;;;14.93;6.93;;;;;;;19.47;61.91;95161.53;4930105;29;20028;-78
2023/09/23 05:24:48;;;;;;;16.23;7.65;;;;;;;19.52;62.20;95163.63;4930357;29;20074;-78
2023/09/23 05:27:14;;;;;;;19.67;6.82;;;;;;;19.54;62.08;95158.31;4912970;29;20058;-78
2023/09/23 05:29:42;;;;;;;13.43;6.45;;;;;;;19.58;61.58;95156.88;4929466;29;20038;-77
2023/09/23 05:32:10;;;;;;;18.55;7.10;;;;;;;19.57;62.15;95158.09;4928632;29;20435;-79
2023/09/23 05:34:39;;;;;;;16.75;7.43;;;;;;;19.68;61.80;95163.06;4929110;29;20027;-79
2023/09/23 05:37:06;;;;;;;16.23;6.68;;;;;;;19.71;61.66;95162.06;4929756;29;20028;-78
2023/09/23 05:39:31;;;;;;;15.20;7.00;;;;;;;19.76;61.76;95164.16;4929698;29;20035;-78
2023/09/23 05:41:56;;;;;;;10.77;5.85;;;;;;;19.78;61.35;95147.69;4929719;29;20099;-77
2023/09/23 05:44:23;;;;;;;13.98;7.05;;;;;;;19.88;61.04;95159.44;4929436;29;20483;-78
2023/09/23 05:46:48;;;;;;;16.15;7.40;;;;;;;19.91;61.11;95171.66;4928731;29;20110;-79
2023/09/23 05:49:14;;;;;;;18.30;6.68;;;;;;;19.99;60.95;95169.94;4912013;29;20467;-79
2023/09/23 05:51:39;;;;;;;14.23;7.15;;;;;;;20.01;60.72;95173.75;4912542;29;20028;-79
2023/09/23 05:54:07;;;;;;;12.38;6.82;;;;;;;20.02;60.44;95163.41;4929420;29;20047;-78
2023/09/23 05:56:32;;;;;;;15.13;6.55;;;;;;;20.12;60.59;95178.69;4928558;29;20024;-77
2023/09/23 05:58:57;;;;;;;18.08;6.88;;;;;;;20.13;60.32;95177.44;4927999;29;20019;-79
2023/09/23 06:01:23;;;;;;;14.90;7.03;;;;;;;20.15;60.10;95172.88;4929040;29;20507;-78
2023/09/23 06:03:50;;;;;;;17.95;8.15;;;;;;;20.21;60.43;95175.72;4929606;29;20106;-78
2023/09/23 06:06:15;;;;;;;15.07;7.22;;;;;;;20.28;60.37;95186.44;4927419;29;20031;-80
2023/09/23 06:08:40;;;;;;;12.02;6.53;;;;;;;20.32;60.22;95177.84;4929812;29;20043;-78
2023/09/23 06:11:07;;;;;;;15.85;7.10;;;;;;;20.34;60.20;95180.91;4928514;29;20036;-79
2023/09/23 06:13:33;;;;;;;16.40;7.10;;;;;;;20.39;59.92;95180.94;4929778;29;20043;-78
2023/09/23 06:16:05;;;;;;;13.52;6.72;;;;;;;20.47;59.92;95186.09;4929037;29;20446;-79
2023/09/23 06:18:31;;;;;;;12.93;6.93;;;;;;;20.50;59.70;95180.31;4929233;29;20028;-79
2023/09/23 06:21:00;;;;;;;15.63;8.13;;;;;;;20.55;59.34;95184.41;4929124;29;20031;-78
2023/09/23 06:23:26;;;;;;;20.25;7.50;;;;;;;20.62;59.62;95186.75;4928637;29;20515;-78
2023/09/23 06:25:56;;;;;;;12.20;6.65;;;;;;;20.70;59.36;95190.59;4929270;29;20076;-79
2023/09/23 06:28:22;;;;;;;14.32;7.15;;;;;;;20.74;58.82;95185.53;4926765;29;20059;-78
2023/09/23 06:30:47;;;;;;;16.63;6.57;;;;;;;20.81;58.41;95175.94;4927937;29;20506;-79
2023/09/23 06:33:13;;;;;;;19.50;7.03;;;;;;;20.95;58.33;95183.41;4911800;29;20024;-78
2023/09/23 06:35:38;;;;;;;19.95;9.00;;;;;;;21.01;58.03;95187.00;4929099;29;20042;-78
2023/09/23 06:38:03;;;;;;;20.15;8.13;;;;;;;21.06;57.82;95194.63;4928688;29;20488;-77
2023/09/23 06:40:29;;;;;;;18.15;6.72;;;;;;;21.13;57.89;95194.16;4928389;29;20059;-77
2023/09/23 06:42:55;;;;;;;14.38;7.47;;;;;;;21.19;57.64;95194.19;4929080;29;20058;-78
2023/09/23 06:45:21;;;;;;;15.30;7.05;;;;;;;21.27;57.71;95198.03;4927958;29;20123;-78
2023/09/23 06:47:46;;;;;;;14.45;7.10;;;;;;;21.37;56.95;95196.59;4929544;29;20368;-76
2023/09/23 06:50:11;;;;;;;18.55;7.70;;;;;;;21.46;57.06;95199.19;4926820;29;20186;-78
2023/09/23 06:52:37;;;;;;;16.80;6.97;;;;;;;21.52;57.02;95195.66;4929068;29;20526;-79
2023/09/23 06:55:02;;;;;;;14.77;7.78;;;;;;;21.60;56.55;95202.28;4911263;29;20024;-79
2023/09/23 06:57:28;;;;;;;13.43;7.40;;;;;;;21.69;56.29;95199.25;4927280;29;20463;-76
2023/09/23 06:59:53;;;;;;;17.00;6.95;;;;;;;21.78;56.04;95201.81;4928729;29;20384;-75
2023/09/23 07:02:19;;;;;;;16.05;7.00;;;;;;;21.83;55.84;95198.28;4928282;29;20023;-78
2023/09/23 07:04:45;;;;;;;18.67;8.23;;;;;;;21.93;55.97;95196.78;4929368;29;20030;-79
2023/09/23 07:07:12;;;;;;;18.52;8.07;;;;;;;22.06;55.83;95203.91;4927738;29;20040;-78
2023/09/23 07:09:38;;;;;;;15.93;7.95;;;;;;;22.13;55.56;95209.81;4929234;29;20502;-79
2023/09/23 07:12:03;;;;;;;17.95;7.55;;;;;;;22.24;55.06;95209.06;4928352;29;20024;-81
2023/09/23 07:14:30;;;;;;;14.27;7.45;;;;;;;22.33;54.67;95208.81;4928593;29;20164;-80
2023/09/23 07:16:56;;;;;;;18.10;7.78;;;;;;;22.41;54.56;95204.22;4927345;29;20078;-83
2023/09/23 07:19:21;;;;;;;20.33;9.40;;;;;;;22.57;53.72;95207.56;4928280;29;20503;-80
2023/09/23 07:21:47;;;;;;;19.70;8.75;;;;;;;22.64;53.54;95202.19;4911812;29;20031;-79
2023/09/23 07:24:12;;;;;;;15.27;7.95;;;;;;;22.73;53.42;95204.75;4927784;29;20540;-79
2023/09/23 07:26:38;;;;;;;13.77;7.18;;;;;;;22.87;53.11;95208.56;4928988;29;20517;-79
2023/09/23 07:29:03;;;;;;;15.80;6.85;;;;;;;22.96;52.76;95211.13;4928017;29;20487;-79
2023/09/23 07:31:29;;;;;;;13.52;7.20;;;;;;;23.06;52.90;95214.41;4928733;29;20032;-80
2023/09/23 07:33:54;;;;;;;21.08;8.07;;;;;;;23.18;52.17;95212.34;4928647;29;20054;-80
2023/09/23 07:36:19;;;;;;;18.08;7.88;;;;;;;23.28;52.16;95213.59;4928370;29;20077;-79
2023/09/23 07:38:45;;;;;;;19.23;8.02;;;;;;;23.41;52.34;95207.44;4928817;29;20036;-81
2023/09/23 07:41:11;;;;;;;13.98;7.25;;;;;;;23.53;51.44;95195.66;4928944;29;20032;-88
2023/09/23 07:43:38;;;;;;;12.15;7.13;;;;;;;23.67;51.22;95201.47;4899707;29;20438;-77
2023/09/23 07:46:04;;;;;;;16.08;7.13;;;;;;;23.79;51.16;95202.94;4913928;29;20043;-79
2023/09/23 07:48:29;;;;;;;19.63;8.02;;;;;;;23.99;51.04;95202.59;4931234;29;20533;-83
2023/09/23 07:50:55;;;;;;;18.00;7.40;;;;;;;24.13;51.06;95199.97;4929617;29;20031;-82
2023/09/23 07:53:21;;;;;;;15.57;8.07;;;;;;;24.29;50.43;95201.91;4930489;29;20120;-77
2023/09/23 07:55:47;;;;;;;14.80;7.53;;;;;;;24.49;49.56;95200.78;4930453;29;20036;-80
2023/09/23 07:58:13;;;;;;;17.50;7.13;;;;;;;24.58;48.76;95189.94;4914524;29;20024;-80
2023/09/23 08:00:38;;;;;;;21.63;7.32;;;;;;;24.83;47.48;95193.56;4930472;29;20518;-79
2023/09/23 08:03:04;;;;;;;16.50;7.88;;;;;;;24.94;47.00;95181.44;4929321;29;20486;-80
2023/09/23 08:05:29;;;;;;;17.55;7.43;;;;;;;25.19;46.65;95199.13;4914866;29;20028;-78
2023/09/23 08:07:55;;;;;;;15.60;7.47;;;;;;;25.22;47.01;95183.22;4913523;29;20112;-79
2023/09/23 08:10:21;;;;;;;14.80;7.00;;;;;;;25.45;46.85;95187.31;4898721;29;20028;-80
2023/09/23 08:12:46;;;;;;;13.30;5.85;;;;;;;25.62;46.94;95184.28;4931104;29;20027;-78
2023/09/23 08:15:12;;;;;;;12.93;6.28;;;;;;;25.80;45.76;95183.56;4914383;29;20020;-79
2023/09/23 08:17:41;;;;;;;16.67;6.50;;;;;;;26.06;44.68;95176.56;4913788;29;20371;-81
2023/09/23 08:20:17;;;;;;;18.85;6.75;;;;;;;26.29;44.33;95179.81;4929953;29;20034;-81
2023/09/23 08:22:44;;;;;;;14.35;6.07;;;;;;;26.52;44.49;95177.44;4915877;29;20145;-81
2023/09/23 08:25:11;;;;;;;15.57;6.60;;;;;;;26.78;43.42;95182.38;4930323;29;20036;-80
2023/09/23 08:27:37;;;;;;;11.48;5.40;;;;;;;27.06;42.15;95171.41;4930505;29;20193;-79
2023/09/23 08:30:02;;;;;;;11.18;5.35;;;;;;;27.27;42.36;95175.09;4913211;29;20560;-80
2023/09/23 08:32:28;;;;;;;11.90;5.55;;;;;;;27.54;41.77;95169.47;4930124;29;20036;-80
2023/09/23 08:34:53;;;;;;;13.30;4.95;;;;;;;27.85;40.65;95167.78;4929300;29;20411;-81
2023/09/23 08:37:19;;;;;;;14.82;5.10;;;;;;;28.13;39.66;95170.00;4913330;29;20027;-81
2023/09/23 08:39:45;;;;;;;15.45;5.90;;;;;;;28.37;39.78;95165.38;4913701;29;20072;-80
2023/09/23 08:42:11;;;;;;;19.02;5.68;;;;;;;28.69;39.32;95171.53;4928804;29;20023;-81
2023/09/23 08:44:38;;;;;;;18.02;6.93;;;;;;;29.01;37.92;95170.50;4898093;29;20024;-80
2023/09/23 08:47:05;;;;;;;15.73;6.07;;;;;;;29.30;37.78;95169.19;4928941;29;20039;-81
2023/09/23 08:49:31;;;;;;;14.25;5.57;;;;;;;29.56;36.54;95165.41;4913878;29;20036;-80
2023/09/23 08:51:57;;;;;;;17.92;8.35;;;;;;;29.85;35.25;95171.03;4928601;29;20024;-81
2023/09/23 08:54:25;;;;;;;14.20;5.85;;;;;;;30.09;35.86;95166.94;4913456;29;20059;-81
2023/09/23 08:56:52;;;;;;;11.85;4.72;;;;;;;30.41;33.92;95164.44;4913899;29;20437;-81
2023/09/23 08:59:17;;;;;;;12.52;5.07;;;;;;;30.60;33.95;95158.41;4912729;29;20046;-81
2023/09/23 09:01:43;;;;;;;14.32;5.35;;;;;;;30.90;33.89;95154.09;4929544;29;20483;-81
2023/09/23 09:04:11;;;;;;;13.57;4.30;;;;;;;31.27;33.43;95151.84;4928788;29;20500;-82
2023/09/23 09:06:46;;;;;;;30.55;10.75;;;;;;;31.66;32.55;95153.25;4930966;29;20060;-81
2023/09/23 09:09:11;;;;;;;14.90;5.97;;;;;;;31.91;32.47;95150.53;4928560;29;20039;-81
2023/09/23 09:11:37;;;;;;;17.23;5.88;;;;;;;32.24;31.75;95145.63;4897576;29;20098;-81
2023/09/23 09:14:02;;;;;;;16.88;5.95;;;;;;;32.57;31.77;95152.06;4930361;29;20023;-81
2023/09/23 09:16:28;;;;;;;14.88;5.50;;;;;;;32.88;30.72;95135.56;4929874;29;20028;-81
2023/09/23 09:18:53;;;;;;;11.48;4.63;;;;;;;33.17;30.21;95135.88;4897733;29;20055;-81
2023/09/23 09:21:19;;;;;;;23.83;8.50;;;;;;;33.58;30.29;95132.84;4928198;29;20031;-81
2023/09/23 09:23:45;;;;;;;13.15;5.30;;;;;;;33.91;29.62;95144.81;4929301;29;20039;-81
2023/09/23 09:26:10;;;;;;;17.92;5.05;;;;;;;34.18;29.19;95145.63;4912040;29;20023;-81
2023/09/23 09:28:35;;;;;;;16.45;5.75;;;;;;;34.47;28.54;95145.81;4913257;29;20411;-81
2023/09/23 09:31:01;;;;;;;15.80;5.40;;;;;;;34.71;27.87;95137.69;4928660;29;20040;-81
2023/09/23 09:33:28;;;;;;;17.63;5.45;;;;;;;35.03;27.65;95130.88;4912616;29;20035;-81
2023/09/23 09:35:57;;;;;;;12.95;4.90;;;;;;;35.35;27.21;95126.91;4912709;29;20518;-80
2023/09/23 09:38:24;;;;;;;15.18;4.95;;;;;;;35.69;26.66;95125.91;4912176;29;20036;-81
2023/09/23 09:40:51;;;;;;;13.10;4.70;;;;;;;36.16;25.90;95127.25;4913486;29;20074;-81
2023/09/23 09:43:17;;;;;;;15.27;5.82;;;;;;;36.71;24.97;95119.00;4928924;29;20086;-81
2023/09/23 09:45:44;;;;;;;15.32;6.68;;;;;;;37.12;24.63;95116.84;4912903;29;20028;-81
2023/09/23 09:48:12;;;;;;;12.75;4.72;;;;;;;37.61;23.73;95111.56;4928103;29;20035;-81
2023/09/23 09:50:39;;;;;;;17.48;5.90;;;;;;;38.22;22.94;95118.44;4928269;29;20028;-82
2023/09/23 09:53:06;;;;;;;16.00;5.28;;;;;;;38.72;22.26;95110.81;4914580;29;20115;-82
2023/09/23 09:55:32;;;;;;;11.77;4.70;;;;;;;39.25;21.50;95108.34;4930799;29;20522;-81
2023/09/23 09:58:00;;;;;;;17.52;4.53;;;;;;;39.84;20.73;95103.19;4913632;29;20032;-81
2023/09/23 10:00:30;;;;;;;13.32;4.50;;;;;;;40.29;20.09;95100.75;4911919;29;20123;-81
2023/09/23 10:03:01;;;;;;;13.30;4.30;;;;;;;40.88;19.42;95092.47;4913285;29;20027;-81
2023/09/23 10:05:46;;;;;;;13.27;4.38;;;;;;;41.20;19.27;95086.22;4927446;29;20062;-81
2023/09/23 10:08:15;;;;;;;19.08;4.95;;;;;;;41.48;18.59;95070.41;4928115;29;20031;-81
2023/09/23 10:10:46;;;;;;;17.90;4.85;;;;;;;42.00;18.43;95074.44;4928260;29;20031;-81
2023/09/23 10:13:13;;;;;;;16.55;4.55;;;;;;;42.52;18.02;95078.41;4911720;29;20073;-81
2023/09/23 10:15:40;;;;;;;15.80;4.47;;;;;;;42.98;17.11;95078.31;4929987;29;20027;-81
2023/09/23 10:18:10;;;;;;;19.52;4.88;;;;;;;43.41;16.38;95073.06;4928620;29;20035;-80
2023/09/23 10:20:42;;;;;;;16.88;4.72;;;;;;;43.95;16.20;95079.69;4928006;29;20059;-80
2023/09/23 10:23:08;;;;;;;12.85;4.03;;;;;;;44.30;15.81;95078.22;4912025;29;20036;-80
2023/09/23 10:25:39;;;;;;;13.68;3.83;;;;;;;44.66;15.24;95070.22;4911626;29;20055;-81
2023/09/23 10:28:05;;;;;;;14.63;4.45;;;;;;;44.98;15.29;95067.09;4928311;29;20044;-81
2023/09/23 10:30:30;;;;;;;11.25;3.70;;;;;;;45.03;14.98;95072.38;4910989;29;20032;-81
2023/09/23 10:32:56;;;;;;;18.63;3.60;;;;;;;45.34;15.10;95061.84;4928195;29;20027;-81
2023/09/23 10:35:23;;;;;;;15.25;4.50;;;;;;;45.34;14.83;95056.06;4910892;29;20080;-81
2023/09/23 10:37:48;;;;;;;20.88;4.60;;;;;;;45.58;14.91;95058.34;4928122;29;20024;-80
2023/09/23 10:40:14;;;;;;;17.02;4.68;;;;;;;45.89;14.45;95060.91;4911333;29;20521;-81
2023/09/23 10:42:42;;;;;;;11.75;4.07;;;;;;;46.33;14.18;95052.16;4911236;29;20066;-80
2023/09/23 10:45:09;;;;;;;17.85;4.18;;;;;;;46.65;13.26;95040.06;4911583;29;20078;-81
2023/09/23 10:47:36;;;;;;;12.32;3.80;;;;;;;46.82;13.50;95036.22;4926750;29;20060;-81
2023/09/23 10:50:05;;;;;;;13.95;4.07;;;;;;;47.28;13.07;95036.09;4927660;29;20066;-81
2023/09/23 10:52:30;;;;;;;13.85;4.32;;;;;;;47.40;13.21;95032.75;4926198;29;20047;-81
2023/09/23 10:54:57;;;;;;;17.05;3.80;;;;;;;47.59;12.54;95032.53;4911908;29;20031;-81
2023/09/23 10:57:23;;;;;;;15.70;4.05;;;;;;;47.68;12.06;95027.72;4926870;29;20050;-81
2023/09/23 10:59:50;;;;;;;20.77;3.97;;;;;;;47.98;12.17;95027.00;4911859;29;20122;-81
2023/09/23 11:02:15;;;;;;;17.42;4.57;;;;;;;48.18;11.90;95021.66;4928877;29;20027;-81
2023/09/23 11:04:45;;;;;;;12.50;3.45;;;;;;;48.34;11.76;95012.56;4927163;29;20086;-82
2023/09/23 11:07:10;;;;;;;14.60;3.53;;;;;;;48.31;11.97;95019.78;4911948;29;20063;-82
2023/09/23 11:09:36;;;;;;;19.27;4.60;;;;;;;48.47;11.53;95007.75;4926675;29;20066;-82
2023/09/23 11:12:15;;;;;;;15.27;3.92;;;;;;;48.46;11.96;95006.25;4912033;29;20214;-81
2023/09/23 11:14:47;;;;;;;17.73;3.83;;;;;;;48.70;11.47;95000.25;4930688;29;20043;-81
2023/09/23 11:17:29;;;;;;;15.27;3.85;;;;;;;48.93;10.71;94993.44;4915058;29;20027;-81
2023/09/23 11:19:55;;;;;;;15.80;3.83;;;;;;;49.27;11.11;94993.41;4932256;29;20060;-81
2023/09/23 11:22:29;;;;;;;13.63;3.40;;;;;;;49.21;10.14;94986.69;4914340;29;20027;-80
2023/09/23 11:24:55;;;;;;;14.90;3.90;;;;;;;48.73;10.77;94984.28;4931247;29;20032;-80